sensor_id;sensor_type;location;lat;lon;timestamp;P1;durP1;ratioP1;P2;durP2;ratioP2
59271;SDS011;45043;51.068;7.026;2023-08-01T00:00:17;3.53;;;2.40;;
59271;SDS011;45043;51.068;7.026;2023-08-01T00:03:18;4.90;;;3.07;;
59271;SDS011;45043;51.068;7.026;2023-08-01T00:06:18;7.67;;;4.63;;
59271;SDS011;45043;51.068;7.026;2023-08-01T00:09:20;12.10;;;6.70;;
59271;SDS011;45043;51.068;7.026;2023-08-01T00:12:20;17.37;;;9.43;;
59271;SDS011;45043;51.068;7.026;2023-08-01T00:15:21;21.30;;;12.07;;
59271;SDS011;45043;51.068;7.026;2023-08-01T00:18:22;26.43;;;14.33;;
59271;SDS011;45043;51.068;7.026;2023-08-01T00:21:22;25.53;;;13.97;;
59271;SDS011;45043;51.068;7.026;2023-08-01T00:24:23;26.20;;;14.30;;
59271;SDS011;45043;51.068;7.026;2023-08-01T00:27:23;26.10;;;14.43;;
59271;SDS011;45043;51.068;7.026;2023-08-01T00:30:24;28.10;;;14.87;;
59271;SDS011;45043;51.068;7.026;2023-08-01T00:33:24;28.53;;;16.10;;
59271;SDS011;45043;51.068;7.026;2023-08-01T00:36:25;28.57;;;15.47;;
59271;SDS011;45043;51.068;7.026;2023-08-01T00:39:26;39.90;;;21.97;;
59271;SDS011;45043;51.068;7.026;2023-08-01T00:42:26;41.77;;;23.67;;
59271;SDS011;45043;51.068;7.026;2023-08-01T00:45:27;42.77;;;23.33;;
59271;SDS011;45043;51.068;7.026;2023-08-01T00:48:28;20.30;;;13.50;;
59271;SDS011;45043;51.068;7.026;2023-08-01T00:51:31;25.33;;;16.13;;
59271;SDS011;45043;51.068;7.026;2023-08-01T00:54:32;33.27;;;17.53;;
59271;SDS011;45043;51.068;7.026;2023-08-01T00:57:36;31.43;;;17.80;;
59271;SDS011;45043;51.068;7.026;2023-08-01T01:00:37;19.33;;;12.40;;
59271;SDS011;45043;51.068;7.026;2023-08-01T01:03:39;20.83;;;14.03;;
59271;SDS011;45043;51.068;7.026;2023-08-01T01:06:59;18.40;;;11.43;;
59271;SDS011;45043;51.068;7.026;2023-08-01T01:10:03;16.23;;;11.07;;
59271;SDS011;45043;51.068;7.026;2023-08-01T01:13:03;14.57;;;9.70;;
59271;SDS011;45043;51.068;7.026;2023-08-01T01:16:04;10.40;;;7.13;;
59271;SDS011;45043;51.068;7.026;2023-08-01T01:19:05;7.87;;;5.73;;
59271;SDS011;45043;51.068;7.026;2023-08-01T01:22:09;9.00;;;5.47;;
59271;SDS011;45043;51.068;7.026;2023-08-01T01:25:11;10.30;;;7.50;;
59271;SDS011;45043;51.068;7.026;2023-08-01T01:28:11;7.80;;;5.83;;
59271;SDS011;45043;51.068;7.026;2023-08-01T01:31:13;6.00;;;4.30;;
59271;SDS011;45043;51.068;7.026;2023-08-01T01:34:15;5.43;;;3.50;;
59271;SDS011;45043;51.068;7.026;2023-08-01T01:37:15;2.47;;;2.27;;
59271;SDS011;45043;51.068;7.026;2023-08-01T01:40:16;3.27;;;2.90;;
59271;SDS011;45043;51.068;7.026;2023-08-01T01:43:16;3.37;;;2.20;;
59271;SDS011;45043;51.068;7.026;2023-08-01T01:46:17;0.87;;;0.83;;
59271;SDS011;45043;51.068;7.026;2023-08-01T01:49:17;3.40;;;1.03;;
59271;SDS011;45043;51.068;7.026;2023-08-01T01:52:18;1.10;;;1.10;;
59271;SDS011;45043;51.068;7.026;2023-08-01T01:55:18;1.30;;;1.10;;
59271;SDS011;45043;51.068;7.026;2023-08-01T01:58:19;1.13;;;1.03;;
59271;SDS011;45043;51.068;7.026;2023-08-01T02:01:19;1.87;;;1.00;;
59271;SDS011;45043;51.068;7.026;2023-08-01T02:04:20;1.40;;;1.27;;
59271;SDS011;45043;51.068;7.026;2023-08-01T02:07:21;1.30;;;1.20;;
59271;SDS011;45043;51.068;7.026;2023-08-01T02:10:22;2.53;;;1.70;;
59271;SDS011;45043;51.068;7.026;2023-08-01T02:13:23;1.43;;;1.33;;
59271;SDS011;45043;51.068;7.026;2023-08-01T02:16:24;1.50;;;1.40;;
59271;SDS011;45043;51.068;7.026;2023-08-01T02:19:24;2.33;;;1.60;;
59271;SDS011;45043;51.068;7.026;2023-08-01T02:22:25;2.00;;;1.27;;
59271;SDS011;45043;51.068;7.026;2023-08-01T02:25:26;1.17;;;1.17;;
59271;SDS011;45043;51.068;7.026;2023-08-01T02:28:27;1.30;;;1.20;;
59271;SDS011;45043;51.068;7.026;2023-08-01T02:31:28;1.43;;;1.40;;
59271;SDS011;45043;51.068;7.026;2023-08-01T02:34:28;1.87;;;1.53;;
59271;SDS011;45043;51.068;7.026;2023-08-01T02:37:28;1.73;;;1.57;;
59271;SDS011;45043;51.068;7.026;2023-08-01T02:40:29;1.80;;;1.70;;
59271;SDS011;45043;51.068;7.026;2023-08-01T02:43:29;1.80;;;1.70;;
59271;SDS011;45043;51.068;7.026;2023-08-01T02:46:35;1.60;;;1.50;;
59271;SDS011;45043;51.068;7.026;2023-08-01T02:49:35;2.03;;;1.70;;
59271;SDS011;45043;51.068;7.026;2023-08-01T02:52:36;1.43;;;1.33;;
59271;SDS011;45043;51.068;7.026;2023-08-01T02:55:37;2.63;;;1.70;;
59271;SDS011;45043;51.068;7.026;2023-08-01T02:58:38;1.87;;;1.77;;
59271;SDS011;45043;51.068;7.026;2023-08-01T03:01:39;3.00;;;1.43;;
59271;SDS011;45043;51.068;7.026;2023-08-01T03:04:39;2.00;;;1.80;;
59271;SDS011;45043;51.068;7.026;2023-08-01T03:07:40;1.70;;;1.60;;
59271;SDS011;45043;51.068;7.026;2023-08-01T03:10:41;2.97;;;1.80;;
59271;SDS011;45043;51.068;7.026;2023-08-01T03:13:42;2.07;;;1.77;;
59271;SDS011;45043;51.068;7.026;2023-08-01T03:16:42;2.40;;;2.20;;
59271;SDS011;45043;51.068;7.026;2023-08-01T03:19:43;2.40;;;2.20;;
59271;SDS011;45043;51.068;7.026;2023-08-01T03:22:43;2.80;;;2.47;;
59271;SDS011;45043;51.068;7.026;2023-08-01T03:25:45;3.27;;;2.97;;
59271;SDS011;45043;51.068;7.026;2023-08-01T03:28:46;4.87;;;3.00;;
59271;SDS011;45043;51.068;7.026;2023-08-01T03:31:46;3.53;;;3.03;;
59271;SDS011;45043;51.068;7.026;2023-08-01T03:34:47;4.13;;;3.67;;
59271;SDS011;45043;51.068;7.026;2023-08-01T03:37:48;4.70;;;4.00;;
59271;SDS011;45043;51.068;7.026;2023-08-01T03:40:48;6.00;;;5.17;;
59271;SDS011;45043;51.068;7.026;2023-08-01T03:43:49;5.93;;;5.13;;
59271;SDS011;45043;51.068;7.026;2023-08-01T03:46:49;6.77;;;6.00;;
59271;SDS011;45043;51.068;7.026;2023-08-01T03:49:50;7.00;;;6.40;;
59271;SDS011;45043;51.068;7.026;2023-08-01T03:52:50;9.03;;;7.40;;
59271;SDS011;45043;51.068;7.026;2023-08-01T03:55:51;10.87;;;9.77;;
59271;SDS011;45043;51.068;7.026;2023-08-01T03:58:51;10.80;;;9.70;;
59271;SDS011;45043;51.068;7.026;2023-08-01T04:01:52;13.33;;;11.10;;
59271;SDS011;45043;51.068;7.026;2023-08-01T04:04:52;13.13;;;11.43;;
59271;SDS011;45043;51.068;7.026;2023-08-01T04:07:53;13.83;;;12.47;;
59271;SDS011;45043;51.068;7.026;2023-08-01T04:10:54;12.57;;;11.37;;
59271;SDS011;45043;51.068;7.026;2023-08-01T04:13:55;13.53;;;12.13;;
59271;SDS011;45043;51.068;7.026;2023-08-01T04:16:56;14.43;;;12.60;;
59271;SDS011;45043;51.068;7.026;2023-08-01T04:19:57;17.57;;;15.27;;
59271;SDS011;45043;51.068;7.026;2023-08-01T04:22:57;16.77;;;15.00;;
59271;SDS011;45043;51.068;7.026;2023-08-01T04:25:57;18.23;;;14.83;;
59271;SDS011;45043;51.068;7.026;2023-08-01T04:28:59;21.27;;;15.93;;
59271;SDS011;45043;51.068;7.026;2023-08-01T04:31:59;17.13;;;15.33;;
59271;SDS011;45043;51.068;7.026;2023-08-01T04:35:00;20.10;;;15.47;;
59271;SDS011;45043;51.068;7.026;2023-08-01T04:38:00;19.00;;;15.93;;
59271;SDS011;45043;51.068;7.026;2023-08-01T04:41:01;14.00;;;11.63;;
59271;SDS011;45043;51.068;7.026;2023-08-01T04:44:03;18.40;;;13.10;;
59271;SDS011;45043;51.068;7.026;2023-08-01T04:47:03;13.33;;;11.73;;
59271;SDS011;45043;51.068;7.026;2023-08-01T04:50:04;13.87;;;11.77;;
59271;SDS011;45043;51.068;7.026;2023-08-01T04:53:05;14.17;;;11.00;;
59271;SDS011;45043;51.068;7.026;2023-08-01T04:56:06;13.40;;;10.73;;
59271;SDS011;45043;51.068;7.026;2023-08-01T04:59:07;13.07;;;11.00;;
59271;SDS011;45043;51.068;7.026;2023-08-01T05:02:07;12.17;;;9.90;;
59271;SDS011;45043;51.068;7.026;2023-08-01T05:05:08;14.77;;;11.50;;
59271;SDS011;45043;51.068;7.026;2023-08-01T05:08:08;13.37;;;10.87;;
59271;SDS011;45043;51.068;7.026;2023-08-01T05:11:09;11.90;;;10.57;;
59271;SDS011;45043;51.068;7.026;2023-08-01T05:14:09;13.87;;;9.67;;
59271;SDS011;45043;51.068;7.026;2023-08-01T05:17:10;10.23;;;7.53;;
59271;SDS011;45043;51.068;7.026;2023-08-01T05:20:11;9.57;;;7.30;;
59271;SDS011;45043;51.068;7.026;2023-08-01T05:23:11;8.27;;;7.03;;
59271;SDS011;45043;51.068;7.026;2023-08-01T05:26:12;8.30;;;6.80;;
59271;SDS011;45043;51.068;7.026;2023-08-01T05:29:13;8.67;;;7.20;;
59271;SDS011;45043;51.068;7.026;2023-08-01T05:32:13;7.93;;;7.13;;
59271;SDS011;45043;51.068;7.026;2023-08-01T05:35:14;9.40;;;7.30;;
59271;SDS011;45043;51.068;7.026;2023-08-01T05:38:14;8.83;;;6.77;;
59271;SDS011;45043;51.068;7.026;2023-08-01T05:41:15;8.63;;;6.67;;
59271;SDS011;45043;51.068;7.026;2023-08-01T05:44:15;10.10;;;7.20;;
59271;SDS011;45043;51.068;7.026;2023-08-01T05:47:16;8.20;;;6.07;;
59271;SDS011;45043;51.068;7.026;2023-08-01T05:50:16;7.77;;;6.50;;
59271;SDS011;45043;51.068;7.026;2023-08-01T05:53:17;8.67;;;6.00;;
59271;SDS011;45043;51.068;7.026;2023-08-01T05:56:17;7.57;;;6.13;;
59271;SDS011;45043;51.068;7.026;2023-08-01T05:59:18;9.47;;;6.80;;
59271;SDS011;45043;51.068;7.026;2023-08-01T06:02:18;9.07;;;6.60;;
59271;SDS011;45043;51.068;7.026;2023-08-01T06:05:19;8.70;;;5.97;;
59271;SDS011;45043;51.068;7.026;2023-08-01T06:08:19;12.90;;;6.40;;
59271;SDS011;45043;51.068;7.026;2023-08-01T06:11:19;9.00;;;6.20;;
59271;SDS011;45043;51.068;7.026;2023-08-01T06:14:20;7.80;;;5.80;;
59271;SDS011;45043;51.068;7.026;2023-08-01T06:17:20;9.90;;;5.70;;
59271;SDS011;45043;51.068;7.026;2023-08-01T06:20:21;7.70;;;5.93;;
59271;SDS011;45043;51.068;7.026;2023-08-01T06:23:21;6.83;;;5.30;;
59271;SDS011;45043;51.068;7.026;2023-08-01T06:26:22;8.33;;;6.20;;
59271;SDS011;45043;51.068;7.026;2023-08-01T06:29:22;6.73;;;5.60;;
59271;SDS011;45043;51.068;7.026;2023-08-01T06:32:24;7.83;;;6.13;;
59271;SDS011;45043;51.068;7.026;2023-08-01T06:35:24;6.87;;;5.67;;
59271;SDS011;45043;51.068;7.026;2023-08-01T06:38:25;10.20;;;5.47;;
59271;SDS011;45043;51.068;7.026;2023-08-01T06:41:25;11.50;;;6.03;;
59271;SDS011;45043;51.068;7.026;2023-08-01T06:44:27;8.37;;;4.90;;
59271;SDS011;45043;51.068;7.026;2023-08-01T06:47:28;9.40;;;5.30;;
59271;SDS011;45043;51.068;7.026;2023-08-01T06:50:28;8.20;;;5.30;;
59271;SDS011;45043;51.068;7.026;2023-08-01T06:53:29;8.63;;;5.30;;
59271;SDS011;45043;51.068;7.026;2023-08-01T06:56:30;7.60;;;5.27;;
59271;SDS011;45043;51.068;7.026;2023-08-01T06:59:30;8.47;;;5.73;;
59271;SDS011;45043;51.068;7.026;2023-08-01T07:02:31;8.13;;;5.33;;
59271;SDS011;45043;51.068;7.026;2023-08-01T07:05:31;5.67;;;4.63;;
59271;SDS011;45043;51.068;7.026;2023-08-01T07:08:32;9.77;;;5.90;;
59271;SDS011;45043;51.068;7.026;2023-08-01T07:11:32;8.67;;;5.60;;
59271;SDS011;45043;51.068;7.026;2023-08-01T07:14:34;7.77;;;5.57;;
59271;SDS011;45043;51.068;7.026;2023-08-01T07:17:35;8.63;;;5.50;;
59271;SDS011;45043;51.068;7.026;2023-08-01T07:20:35;7.20;;;5.17;;
59271;SDS011;45043;51.068;7.026;2023-08-01T07:23:35;7.13;;;5.23;;
59271;SDS011;45043;51.068;7.026;2023-08-01T07:26:36;11.60;;;6.03;;
59271;SDS011;45043;51.068;7.026;2023-08-01T07:29:37;9.93;;;5.43;;
59271;SDS011;45043;51.068;7.026;2023-08-01T07:32:37;8.37;;;5.60;;
59271;SDS011;45043;51.068;7.026;2023-08-01T07:35:38;6.90;;;5.90;;
59271;SDS011;45043;51.068;7.026;2023-08-01T07:38:38;8.13;;;6.07;;
59271;SDS011;45043;51.068;7.026;2023-08-01T07:41:39;9.87;;;5.97;;
59271;SDS011;45043;51.068;7.026;2023-08-01T07:44:40;8.37;;;6.00;;
59271;SDS011;45043;51.068;7.026;2023-08-01T07:47:40;13.83;;;6.20;;
59271;SDS011;45043;51.068;7.026;2023-08-01T07:50:40;11.73;;;5.83;;
59271;SDS011;45043;51.068;7.026;2023-08-01T07:53:41;8.67;;;6.17;;
59271;SDS011;45043;51.068;7.026;2023-08-01T07:56:42;8.67;;;6.47;;
59271;SDS011;45043;51.068;7.026;2023-08-01T07:59:43;10.97;;;6.10;;
59271;SDS011;45043;51.068;7.026;2023-08-01T08:02:44;10.30;;;6.17;;
59271;SDS011;45043;51.068;7.026;2023-08-01T08:05:46;9.53;;;5.57;;
59271;SDS011;45043;51.068;7.026;2023-08-01T08:08:46;8.83;;;6.17;;
59271;SDS011;45043;51.068;7.026;2023-08-01T08:11:47;8.30;;;5.43;;
59271;SDS011;45043;51.068;7.026;2023-08-01T08:14:47;7.60;;;5.73;;
59271;SDS011;45043;51.068;7.026;2023-08-01T08:17:48;10.47;;;5.40;;
59271;SDS011;45043;51.068;7.026;2023-08-01T08:20:48;9.63;;;5.80;;
59271;SDS011;45043;51.068;7.026;2023-08-01T08:23:49;8.90;;;5.73;;
59271;SDS011;45043;51.068;7.026;2023-08-01T08:26:50;9.00;;;5.43;;
59271;SDS011;45043;51.068;7.026;2023-08-01T08:29:50;7.13;;;5.23;;
59271;SDS011;45043;51.068;7.026;2023-08-01T08:32:51;10.17;;;5.20;;
59271;SDS011;45043;51.068;7.026;2023-08-01T08:35:51;7.77;;;5.20;;
59271;SDS011;45043;51.068;7.026;2023-08-01T08:38:52;9.00;;;5.20;;
59271;SDS011;45043;51.068;7.026;2023-08-01T08:41:52;7.47;;;4.50;;
59271;SDS011;45043;51.068;7.026;2023-08-01T08:44:54;7.33;;;5.07;;
59271;SDS011;45043;51.068;7.026;2023-08-01T08:47:56;8.10;;;4.70;;
59271;SDS011;45043;51.068;7.026;2023-08-01T08:51:01;10.00;;;5.17;;
59271;SDS011;45043;51.068;7.026;2023-08-01T08:54:04;7.63;;;5.07;;
59271;SDS011;45043;51.068;7.026;2023-08-01T08:57:05;8.27;;;5.07;;
59271;SDS011;45043;51.068;7.026;2023-08-01T09:00:09;7.87;;;5.73;;
59271;SDS011;45043;51.068;7.026;2023-08-01T09:03:11;9.27;;;5.00;;
59271;SDS011;45043;51.068;7.026;2023-08-01T09:06:15;8.13;;;5.17;;
59271;SDS011;45043;51.068;7.026;2023-08-01T09:09:17;8.00;;;5.07;;
59271;SDS011;45043;51.068;7.026;2023-08-01T09:12:22;8.83;;;5.10;;
59271;SDS011;45043;51.068;7.026;2023-08-01T09:15:24;9.30;;;5.10;;
59271;SDS011;45043;51.068;7.026;2023-08-01T09:18:27;6.77;;;4.63;;
59271;SDS011;45043;51.068;7.026;2023-08-01T09:21:31;8.07;;;4.73;;
59271;SDS011;45043;51.068;7.026;2023-08-01T09:24:38;7.90;;;4.50;;
59271;SDS011;45043;51.068;7.026;2023-08-01T09:27:39;6.63;;;4.20;;
59271;SDS011;45043;51.068;7.026;2023-08-01T09:30:46;6.97;;;4.60;;
59271;SDS011;45043;51.068;7.026;2023-08-01T09:33:50;5.83;;;4.03;;
59271;SDS011;45043;51.068;7.026;2023-08-01T09:36:51;8.57;;;4.47;;
59271;SDS011;45043;51.068;7.026;2023-08-01T09:39:58;4.97;;;4.17;;
59271;SDS011;45043;51.068;7.026;2023-08-01T09:43:00;6.67;;;4.40;;
59271;SDS011;45043;51.068;7.026;2023-08-01T09:46:01;7.43;;;4.27;;
59271;SDS011;45043;51.068;7.026;2023-08-01T09:49:11;7.03;;;4.57;;
59271;SDS011;45043;51.068;7.026;2023-08-01T09:52:15;6.83;;;4.00;;
59271;SDS011;45043;51.068;7.026;2023-08-01T09:58:34;8.13;;;4.70;;
59271;SDS011;45043;51.068;7.026;2023-08-01T10:01:35;7.03;;;4.70;;
59271;SDS011;45043;51.068;7.026;2023-08-01T10:04:38;5.77;;;4.40;;
59271;SDS011;45043;51.068;7.026;2023-08-01T10:07:40;7.17;;;4.50;;
59271;SDS011;45043;51.068;7.026;2023-08-01T10:10:44;6.23;;;4.80;;
59271;SDS011;45043;51.068;7.026;2023-08-01T10:13:47;7.47;;;4.97;;
59271;SDS011;45043;51.068;7.026;2023-08-01T10:16:48;5.97;;;4.00;;
59271;SDS011;45043;51.068;7.026;2023-08-01T10:19:50;7.53;;;4.33;;
59271;SDS011;45043;51.068;7.026;2023-08-01T10:22:51;5.67;;;3.90;;
59271;SDS011;45043;51.068;7.026;2023-08-01T10:25:52;5.53;;;3.97;;
59271;SDS011;45043;51.068;7.026;2023-08-01T10:28:54;5.97;;;3.90;;
59271;SDS011;45043;51.068;7.026;2023-08-01T10:31:55;6.70;;;4.20;;
59271;SDS011;45043;51.068;7.026;2023-08-01T10:34:55;6.43;;;4.00;;
59271;SDS011;45043;51.068;7.026;2023-08-01T10:38:03;8.73;;;3.90;;
59271;SDS011;45043;51.068;7.026;2023-08-01T10:41:04;5.37;;;3.90;;
59271;SDS011;45043;51.068;7.026;2023-08-01T10:44:12;8.00;;;3.90;;
59271;SDS011;45043;51.068;7.026;2023-08-01T10:47:14;6.93;;;3.90;;
59271;SDS011;45043;51.068;7.026;2023-08-01T10:50:24;6.83;;;4.37;;
59271;SDS011;45043;51.068;7.026;2023-08-01T10:53:25;7.20;;;4.20;;
59271;SDS011;45043;51.068;7.026;2023-08-01T10:56:25;6.33;;;3.97;;
59271;SDS011;45043;51.068;7.026;2023-08-01T10:59:26;7.93;;;3.90;;
59271;SDS011;45043;51.068;7.026;2023-08-01T11:02:27;6.40;;;3.47;;
59271;SDS011;45043;51.068;7.026;2023-08-01T11:05:29;9.13;;;3.93;;
59271;SDS011;45043;51.068;7.026;2023-08-01T11:08:40;6.67;;;4.07;;
59271;SDS011;45043;51.068;7.026;2023-08-01T11:11:41;5.63;;;3.57;;
59271;SDS011;45043;51.068;7.026;2023-08-01T11:14:42;6.57;;;4.20;;
59271;SDS011;45043;51.068;7.026;2023-08-01T11:17:48;7.97;;;3.80;;
59271;SDS011;45043;51.068;7.026;2023-08-01T11:20:53;4.80;;;3.50;;
59271;SDS011;45043;51.068;7.026;2023-08-01T11:23:54;8.00;;;4.13;;
59271;SDS011;45043;51.068;7.026;2023-08-01T11:26:54;6.83;;;3.80;;
59271;SDS011;45043;51.068;7.026;2023-08-01T11:29:55;7.47;;;4.00;;
59271;SDS011;45043;51.068;7.026;2023-08-01T11:32:56;4.90;;;3.53;;
59271;SDS011;45043;51.068;7.026;2023-08-01T11:35:57;4.87;;;3.77;;
59271;SDS011;45043;51.068;7.026;2023-08-01T11:38:59;5.50;;;3.60;;
59271;SDS011;45043;51.068;7.026;2023-08-01T11:42:00;5.13;;;3.57;;
59271;SDS011;45043;51.068;7.026;2023-08-01T11:45:08;4.93;;;3.20;;
59271;SDS011;45043;51.068;7.026;2023-08-01T11:48:14;5.07;;;3.40;;
59271;SDS011;45043;51.068;7.026;2023-08-01T11:51:15;8.67;;;3.43;;
59271;SDS011;45043;51.068;7.026;2023-08-01T11:54:16;3.53;;;2.80;;
59271;SDS011;45043;51.068;7.026;2023-08-01T11:57:17;6.60;;;3.50;;
59271;SDS011;45043;51.068;7.026;2023-08-01T12:00:22;4.17;;;2.10;;
59271;SDS011;45043;51.068;7.026;2023-08-01T12:03:24;4.93;;;1.97;;
59271;SDS011;45043;51.068;7.026;2023-08-01T12:06:24;1.90;;;1.70;;
59271;SDS011;45043;51.068;7.026;2023-08-01T12:09:25;2.47;;;1.87;;
59271;SDS011;45043;51.068;7.026;2023-08-01T12:12:26;2.53;;;2.33;;
59271;SDS011;45043;51.068;7.026;2023-08-01T12:15:27;2.90;;;2.00;;
59271;SDS011;45043;51.068;7.026;2023-08-01T12:18:28;3.63;;;2.40;;
59271;SDS011;45043;51.068;7.026;2023-08-01T12:21:31;3.27;;;2.60;;
59271;SDS011;45043;51.068;7.026;2023-08-01T12:24:33;7.70;;;2.80;;
59271;SDS011;45043;51.068;7.026;2023-08-01T12:27:35;3.20;;;2.50;;
59271;SDS011;45043;51.068;7.026;2023-08-01T12:30:38;5.63;;;2.90;;
59271;SDS011;45043;51.068;7.026;2023-08-01T12:33:40;6.23;;;3.60;;
59271;SDS011;45043;51.068;7.026;2023-08-01T12:36:40;5.40;;;3.63;;
59271;SDS011;45043;51.068;7.026;2023-08-01T12:39:41;4.90;;;3.30;;
59271;SDS011;45043;51.068;7.026;2023-08-01T12:42:42;4.57;;;3.03;;
59271;SDS011;45043;51.068;7.026;2023-08-01T12:45:42;4.57;;;3.40;;
59271;SDS011;45043;51.068;7.026;2023-08-01T12:48:43;5.63;;;3.87;;
59271;SDS011;45043;51.068;7.026;2023-08-01T12:51:44;4.87;;;3.63;;
59271;SDS011;45043;51.068;7.026;2023-08-01T12:54:45;5.77;;;4.10;;
59271;SDS011;45043;51.068;7.026;2023-08-01T12:57:46;4.17;;;3.77;;
59271;SDS011;45043;51.068;7.026;2023-08-01T13:00:47;5.83;;;3.83;;
59271;SDS011;45043;51.068;7.026;2023-08-01T13:03:47;5.97;;;3.90;;
59271;SDS011;45043;51.068;7.026;2023-08-01T13:06:47;7.90;;;4.30;;
59271;SDS011;45043;51.068;7.026;2023-08-01T13:09:48;5.73;;;3.70;;
59271;SDS011;45043;51.068;7.026;2023-08-01T13:12:48;8.60;;;4.50;;
59271;SDS011;45043;51.068;7.026;2023-08-01T13:15:49;5.23;;;4.20;;
59271;SDS011;45043;51.068;7.026;2023-08-01T13:18:49;5.47;;;4.43;;
59271;SDS011;45043;51.068;7.026;2023-08-01T13:21:50;8.50;;;5.30;;
59271;SDS011;45043;51.068;7.026;2023-08-01T13:24:50;7.67;;;5.27;;
59271;SDS011;45043;51.068;7.026;2023-08-01T13:27:51;8.77;;;5.90;;
59271;SDS011;45043;51.068;7.026;2023-08-01T13:30:52;6.70;;;5.20;;
59271;SDS011;45043;51.068;7.026;2023-08-01T13:33:52;10.83;;;6.20;;
59271;SDS011;45043;51.068;7.026;2023-08-01T13:36:53;8.47;;;6.17;;
59271;SDS011;45043;51.068;7.026;2023-08-01T13:39:54;6.30;;;4.80;;
59271;SDS011;45043;51.068;7.026;2023-08-01T13:42:54;7.83;;;5.50;;
59271;SDS011;45043;51.068;7.026;2023-08-01T13:45:55;4.93;;;4.30;;
59271;SDS011;45043;51.068;7.026;2023-08-01T13:48:56;5.83;;;4.60;;
59271;SDS011;45043;51.068;7.026;2023-08-01T13:51:57;5.30;;;4.80;;
59271;SDS011;45043;51.068;7.026;2023-08-01T13:54:58;5.73;;;5.23;;
59271;SDS011;45043;51.068;7.026;2023-08-01T13:57:58;5.67;;;4.40;;
59271;SDS011;45043;51.068;7.026;2023-08-01T14:01:02;8.43;;;5.33;;
59271;SDS011;45043;51.068;7.026;2023-08-01T14:04:04;5.53;;;4.40;;
59271;SDS011;45043;51.068;7.026;2023-08-01T14:07:05;5.27;;;4.53;;
59271;SDS011;45043;51.068;7.026;2023-08-01T14:10:05;6.03;;;4.57;;
59271;SDS011;45043;51.068;7.026;2023-08-01T14:13:06;6.47;;;4.70;;
59271;SDS011;45043;51.068;7.026;2023-08-01T14:16:07;4.93;;;4.20;;
59271;SDS011;45043;51.068;7.026;2023-08-01T14:19:07;7.23;;;4.73;;
59271;SDS011;45043;51.068;7.026;2023-08-01T14:22:08;6.00;;;4.37;;
59271;SDS011;45043;51.068;7.026;2023-08-01T14:25:08;7.10;;;5.00;;
59271;SDS011;45043;51.068;7.026;2023-08-01T14:28:09;9.20;;;5.07;;
59271;SDS011;45043;51.068;7.026;2023-08-01T14:31:11;7.33;;;4.70;;
59271;SDS011;45043;51.068;7.026;2023-08-01T14:34:11;5.70;;;4.50;;
59271;SDS011;45043;51.068;7.026;2023-08-01T14:37:12;5.77;;;5.13;;
59271;SDS011;45043;51.068;7.026;2023-08-01T14:40:15;8.37;;;5.60;;
59271;SDS011;45043;51.068;7.026;2023-08-01T14:43:16;6.30;;;4.80;;
59271;SDS011;45043;51.068;7.026;2023-08-01T14:46:16;9.07;;;4.73;;
59271;SDS011;45043;51.068;7.026;2023-08-01T14:49:17;6.93;;;5.07;;
59271;SDS011;45043;51.068;7.026;2023-08-01T14:52:21;6.37;;;4.10;;
59271;SDS011;45043;51.068;7.026;2023-08-01T14:55:21;6.93;;;4.40;;
59271;SDS011;45043;51.068;7.026;2023-08-01T14:58:22;7.83;;;5.10;;
59271;SDS011;45043;51.068;7.026;2023-08-01T15:01:23;7.70;;;5.17;;
59271;SDS011;45043;51.068;7.026;2023-08-01T15:04:23;8.03;;;5.07;;
59271;SDS011;45043;51.068;7.026;2023-08-01T15:07:24;8.60;;;5.07;;
59271;SDS011;45043;51.068;7.026;2023-08-01T15:10:26;6.30;;;5.10;;
59271;SDS011;45043;51.068;7.026;2023-08-01T15:13:27;6.87;;;5.07;;
59271;SDS011;45043;51.068;7.026;2023-08-01T15:16:27;6.03;;;4.50;;
59271;SDS011;45043;51.068;7.026;2023-08-01T15:19:28;7.00;;;4.73;;
59271;SDS011;45043;51.068;7.026;2023-08-01T15:22:28;6.67;;;4.20;;
59271;SDS011;45043;51.068;7.026;2023-08-01T15:25:29;8.23;;;4.10;;
59271;SDS011;45043;51.068;7.026;2023-08-01T15:28:29;6.77;;;4.30;;
59271;SDS011;45043;51.068;7.026;2023-08-01T15:31:30;6.93;;;4.33;;
59271;SDS011;45043;51.068;7.026;2023-08-01T15:34:31;6.50;;;4.03;;
59271;SDS011;45043;51.068;7.026;2023-08-01T15:37:31;6.07;;;3.23;;
59271;SDS011;45043;51.068;7.026;2023-08-01T15:40:32;8.40;;;3.77;;
59271;SDS011;45043;51.068;7.026;2023-08-01T15:43:33;7.17;;;3.57;;
59271;SDS011;45043;51.068;7.026;2023-08-01T15:46:35;7.40;;;3.30;;
59271;SDS011;45043;51.068;7.026;2023-08-01T15:49:36;6.87;;;2.90;;
59271;SDS011;45043;51.068;7.026;2023-08-01T15:52:37;5.53;;;3.10;;
59271;SDS011;45043;51.068;7.026;2023-08-01T15:55:37;6.63;;;3.37;;
59271;SDS011;45043;51.068;7.026;2023-08-01T15:58:38;5.70;;;3.33;;
59271;SDS011;45043;51.068;7.026;2023-08-01T16:01:39;7.93;;;3.27;;
59271;SDS011;45043;51.068;7.026;2023-08-01T16:04:41;6.80;;;3.30;;
59271;SDS011;45043;51.068;7.026;2023-08-01T16:07:41;5.03;;;2.93;;
59271;SDS011;45043;51.068;7.026;2023-08-01T16:10:42;7.23;;;3.40;;
59271;SDS011;45043;51.068;7.026;2023-08-01T16:13:43;7.03;;;3.20;;
59271;SDS011;45043;51.068;7.026;2023-08-01T16:16:44;4.53;;;3.00;;
59271;SDS011;45043;51.068;7.026;2023-08-01T16:19:44;6.00;;;3.67;;
59271;SDS011;45043;51.068;7.026;2023-08-01T16:22:45;4.10;;;3.70;;
59271;SDS011;45043;51.068;7.026;2023-08-01T16:25:46;7.33;;;3.83;;
59271;SDS011;45043;51.068;7.026;2023-08-01T16:28:47;4.07;;;3.20;;
59271;SDS011;45043;51.068;7.026;2023-08-01T16:31:47;7.83;;;4.50;;
59271;SDS011;45043;51.068;7.026;2023-08-01T16:34:48;6.73;;;3.67;;
59271;SDS011;45043;51.068;7.026;2023-08-01T16:37:48;6.40;;;4.67;;
59271;SDS011;45043;51.068;7.026;2023-08-01T16:40:49;8.20;;;3.40;;
59271;SDS011;45043;51.068;7.026;2023-08-01T16:43:49;5.60;;;4.30;;
59271;SDS011;45043;51.068;7.026;2023-08-01T16:46:50;6.40;;;4.90;;
59271;SDS011;45043;51.068;7.026;2023-08-01T16:49:54;8.10;;;4.97;;
59271;SDS011;45043;51.068;7.026;2023-08-01T16:52:55;8.27;;;5.00;;
59271;SDS011;45043;51.068;7.026;2023-08-01T16:55:56;6.27;;;5.20;;
59271;SDS011;45043;51.068;7.026;2023-08-01T16:58:56;6.07;;;2.83;;
59271;SDS011;45043;51.068;7.026;2023-08-01T17:01:57;6.37;;;4.30;;
59271;SDS011;45043;51.068;7.026;2023-08-01T17:05:07;5.77;;;3.33;;
59271;SDS011;45043;51.068;7.026;2023-08-01T17:08:10;9.33;;;5.50;;
59271;SDS011;45043;51.068;7.026;2023-08-01T17:11:11;6.80;;;3.37;;
59271;SDS011;45043;51.068;7.026;2023-08-01T17:14:11;4.87;;;3.50;;
59271;SDS011;45043;51.068;7.026;2023-08-01T17:17:12;7.10;;;4.10;;
59271;SDS011;45043;51.068;7.026;2023-08-01T17:20:13;4.77;;;2.47;;
59271;SDS011;45043;51.068;7.026;2023-08-01T17:23:14;4.67;;;2.80;;
59271;SDS011;45043;51.068;7.026;2023-08-01T17:26:14;3.20;;;2.23;;
59271;SDS011;45043;51.068;7.026;2023-08-01T17:29:15;5.37;;;2.33;;
59271;SDS011;45043;51.068;7.026;2023-08-01T17:32:15;4.97;;;2.70;;
59271;SDS011;45043;51.068;7.026;2023-08-01T17:35:17;6.77;;;2.50;;
59271;SDS011;45043;51.068;7.026;2023-08-01T17:38:17;3.90;;;2.10;;
59271;SDS011;45043;51.068;7.026;2023-08-01T17:41:19;6.53;;;2.40;;
59271;SDS011;45043;51.068;7.026;2023-08-01T17:44:20;4.43;;;2.00;;
59271;SDS011;45043;51.068;7.026;2023-08-01T17:47:21;9.60;;;2.40;;
59271;SDS011;45043;51.068;7.026;2023-08-01T17:50:21;4.67;;;2.77;;
59271;SDS011;45043;51.068;7.026;2023-08-01T17:53:24;3.67;;;2.17;;
59271;SDS011;45043;51.068;7.026;2023-08-01T17:56:24;6.03;;;2.50;;
59271;SDS011;45043;51.068;7.026;2023-08-01T17:59:26;3.07;;;1.90;;
59271;SDS011;45043;51.068;7.026;2023-08-01T18:02:26;3.67;;;2.10;;
59271;SDS011;45043;51.068;7.026;2023-08-01T18:05:28;2.43;;;1.80;;
59271;SDS011;45043;51.068;7.026;2023-08-01T18:08:29;2.40;;;1.70;;